Montopolis, Texas
Current Conditions -  °F | °C
As of 7:53 AM on Sunday 21 Dec 2014 (Local Time) from KAUS Reporting Station
Overcast Overcast  
Wind Chill: 50°   Ceiling: 1800
Heat Index: 50°   Visibility: 10mi
Dew Point: 46°   Wind: 5mph
Humidity: 86%   Direction: 140°SE
Pressure: 30.1"   Gusts: NA
Location:  30.2284°N, 97.7133°W
Report Text: KAUS 211353Z 14004KT 10SM OVC018 10/08 A3010 RMK AO2 SLP195 T01000078
Loading
Personal Weather Stations






























Interactive Weather Map New forecast layout! Learn more

10-Day Weather Forecast

Advertisements
Track Severe Weather on mobile